createdAt,value
2018-02-22T00:00:22.798Z,27.80
2018-02-22T00:02:51.101Z,24.83
2018-02-22T00:05:18.648Z,26.07
2018-02-22T00:07:46.975Z,24.90
2018-02-22T00:10:14.541Z,23.83
2018-02-22T00:12:42.865Z,25.77
2018-02-22T00:15:10.430Z,28.00
2018-02-22T00:17:37.978Z,25.13
2018-02-22T00:20:06.314Z,28.03
2018-02-22T00:22:33.870Z,25.00
2018-02-22T00:25:01.464Z,24.90
2018-02-22T00:27:29.760Z,24.03
2018-02-22T00:29:57.327Z,23.17
2018-02-22T00:32:24.881Z,25.70
2018-02-22T00:34:52.437Z,24.53
2018-02-22T00:37:20.006Z,23.50
2018-02-22T00:39:47.574Z,24.63
2018-02-22T00:42:15.108Z,23.80
2018-02-22T00:44:43.442Z,23.63
2018-02-22T00:47:10.975Z,23.20
2018-02-22T00:49:38.531Z,25.03
2018-02-22T00:52:06.077Z,24.13
2018-02-22T00:54:33.615Z,25.07
2018-02-22T00:57:01.946Z,25.00
2018-02-22T00:59:29.497Z,23.43
2018-02-22T01:01:57.038Z,22.40
2018-02-22T01:04:24.614Z,23.60
2018-02-22T01:06:52.159Z,24.07
2018-02-22T01:09:19.728Z,24.10
2018-02-22T01:11:47.303Z,25.40
2018-02-22T01:14:14.870Z,24.90
2018-02-22T01:16:42.400Z,25.10
2018-02-22T01:19:09.950Z,24.27
2018-02-22T01:21:37.574Z,26.53
2018-02-22T01:24:05.101Z,24.67
2018-02-22T01:26:32.664Z,23.90
2018-02-22T01:29:00.243Z,24.40
2018-02-22T01:31:27.784Z,24.10
2018-02-22T01:33:55.341Z,22.70
2018-02-22T01:36:22.912Z,24.23
2018-02-22T01:38:50.467Z,26.10
2018-02-22T01:41:18.128Z,24.80
2018-02-22T01:46:19.658Z,22.60
2018-02-22T01:48:47.204Z,23.60
2018-02-22T01:51:14.778Z,25.40
2018-02-22T01:53:42.327Z,24.17
2018-02-22T01:56:10.658Z,24.00
2018-02-22T01:58:38.225Z,23.30
2018-02-22T02:01:05.747Z,24.60
2018-02-22T02:03:33.294Z,23.70
2018-02-22T02:06:00.845Z,24.57
2018-02-22T02:08:29.166Z,24.50
2018-02-22T02:10:56.704Z,25.50
2018-02-22T02:13:24.290Z,25.30
2018-02-22T02:15:51.836Z,26.73
2018-02-22T02:18:19.409Z,23.80
2018-02-22T02:20:46.975Z,24.90
2018-02-22T02:23:14.515Z,24.03
2018-02-22T02:25:42.075Z,24.97
2018-02-22T02:28:09.626Z,24.87
2018-02-22T02:30:37.178Z,26.13
2018-02-22T02:33:04.713Z,24.50
2018-02-22T02:35:33.035Z,25.37
2018-02-22T02:38:00.586Z,25.33
2018-02-22T02:40:28.133Z,25.70
2018-02-22T02:42:55.689Z,25.33
2018-02-22T02:45:23.264Z,25.23
2018-02-22T02:47:50.803Z,22.60
2018-02-22T02:50:18.349Z,22.40
2018-02-22T02:52:45.902Z,23.70
2018-02-22T02:55:14.200Z,25.70
2018-02-22T02:57:41.774Z,26.03
2018-02-22T03:00:09.334Z,24.67
2018-02-22T03:02:36.893Z,23.77
2018-02-22T03:05:04.436Z,24.57
2018-02-22T03:07:31.988Z,25.80
2018-02-22T03:09:59.547Z,25.73
2018-02-22T03:15:01.017Z,24.40
2018-02-22T03:17:29.347Z,23.60
2018-02-22T03:19:56.897Z,24.57
2018-02-22T03:22:24.468Z,24.37
2018-02-22T03:24:52.029Z,25.60
2018-02-22T03:27:19.564Z,26.17
2018-02-22T03:29:47.122Z,24.40
2018-02-22T03:32:14.641Z,25.53
2018-02-22T03:34:42.954Z,25.40
2018-02-22T03:37:10.482Z,24.80
2018-02-22T03:39:38.042Z,23.93
2018-02-22T03:42:06.341Z,23.80
2018-02-22T03:44:33.884Z,24.80
2018-02-22T03:47:01.429Z,26.40
2018-02-22T03:49:29.750Z,24.27
2018-02-22T03:51:57.297Z,25.30
2018-02-22T03:54:25.081Z,25.47
2018-02-22T03:56:52.601Z,24.83
2018-02-22T03:59:20.241Z,23.70
2018-02-22T04:01:47.868Z,25.00
2018-02-22T04:04:15.479Z,25.17
2018-02-22T04:06:43.925Z,24.10
2018-02-22T04:09:11.571Z,23.60
2018-02-22T04:11:39.191Z,24.23
2018-02-22T04:14:07.552Z,23.70
2018-02-22T04:16:35.225Z,24.40
2018-02-22T04:19:03.662Z,22.60
2018-02-22T04:21:31.354Z,23.90
2018-02-22T04:23:58.926Z,23.73
2018-02-22T04:26:27.302Z,25.00
2018-02-22T04:28:55.776Z,24.67
2018-02-22T04:31:24.155Z,24.00
2018-02-22T04:33:51.775Z,23.07
2018-02-22T04:36:20.185Z,22.80
2018-02-22T04:38:47.870Z,22.60
2018-02-22T04:41:16.260Z,22.80
2018-02-22T04:43:43.863Z,23.73
2018-02-22T04:46:11.427Z,23.33
2018-02-22T04:48:39.021Z,23.33
2018-02-22T04:51:06.588Z,25.30
2018-02-22T04:53:34.242Z,23.20
2018-02-22T04:56:01.877Z,23.43
2018-02-22T04:58:29.557Z,24.57
2018-02-22T05:00:57.200Z,23.83
2018-02-22T05:03:24.806Z,23.80
2018-02-22T05:05:52.409Z,24.00
2018-02-22T05:08:20.035Z,23.77
2018-02-22T05:10:47.620Z,25.47
2018-02-22T05:13:15.263Z,26.20
2018-02-22T05:15:43.364Z,24.13
2018-02-22T05:18:10.962Z,23.03
2018-02-22T05:20:38.488Z,25.07
2018-02-22T05:23:06.074Z,23.33
2018-02-22T05:25:33.717Z,24.57
2018-02-22T05:28:01.299Z,24.17
2018-02-22T05:30:28.851Z,23.70
2018-02-22T05:32:56.484Z,23.57
2018-02-22T05:35:24.102Z,22.93
2018-02-22T05:37:52.514Z,24.63
2018-02-22T05:40:20.093Z,24.40
2018-02-22T05:42:47.746Z,21.67
2018-02-22T05:45:15.280Z,25.00
2018-02-22T05:47:42.856Z,25.63
2018-02-22T05:50:10.390Z,23.10
2018-02-22T05:52:37.989Z,24.20
2018-02-22T05:55:05.510Z,23.20
2018-02-22T05:57:33.028Z,23.70
2018-02-22T06:00:00.522Z,25.30
2018-02-22T06:02:28.778Z,23.07
2018-02-22T06:04:57.074Z,22.23
2018-02-22T06:07:25.336Z,23.50
2018-02-22T06:09:53.578Z,22.97
2018-02-22T06:12:21.259Z,22.90
2018-02-22T06:14:48.755Z,20.20
2018-02-22T06:17:16.249Z,21.00
2018-02-22T06:19:43.748Z,21.70
2018-02-22T06:22:11.354Z,24.27
2018-02-22T06:24:38.936Z,22.20
2018-02-22T06:27:06.574Z,21.03
2018-02-22T06:29:34.077Z,20.23
2018-02-22T06:32:01.690Z,20.70
2018-02-22T06:34:29.371Z,21.90
2018-02-22T06:36:57.191Z,21.50
2018-02-22T06:39:24.857Z,23.97
2018-02-22T06:41:52.374Z,21.23
2018-02-22T06:44:19.881Z,23.50
2018-02-22T06:46:47.379Z,21.47
2018-02-22T06:49:14.879Z,23.57
2018-02-22T06:51:43.142Z,21.70
2018-02-22T06:54:10.646Z,23.20
2018-02-22T06:56:38.123Z,24.07
2018-02-22T06:59:05.615Z,22.00
2018-02-22T07:01:33.100Z,21.63
2018-02-22T07:04:00.620Z,21.27
2018-02-22T07:06:28.097Z,21.10
2018-02-22T07:08:55.599Z,21.27
2018-02-22T07:11:23.094Z,21.23
2018-02-22T07:13:50.591Z,20.90
2018-02-22T07:16:18.845Z,22.73
2018-02-22T07:18:46.333Z,23.63
2018-02-22T07:21:13.909Z,21.00
2018-02-22T07:23:41.485Z,21.13
2018-02-22T07:26:09.026Z,22.90
2018-02-22T07:28:36.612Z,23.80
2018-02-22T07:31:04.107Z,22.17
2018-02-22T07:33:31.616Z,20.33
2018-02-22T07:35:59.144Z,20.00
2018-02-22T07:38:26.655Z,19.40
2018-02-22T07:40:54.156Z,21.27
2018-02-22T07:43:22.431Z,19.03
2018-02-22T07:45:50.671Z,22.10
2018-02-22T07:48:18.160Z,21.20
2018-02-22T07:50:46.431Z,21.73
2018-02-22T07:53:13.927Z,21.63
2018-02-22T07:55:41.428Z,20.80
2018-02-22T07:58:08.924Z,17.80
2018-02-22T08:00:36.430Z,20.33
2018-02-22T08:03:03.916Z,20.63
2018-02-22T08:05:31.410Z,20.73
2018-02-22T08:07:58.892Z,20.77
2018-02-22T08:10:26.396Z,20.17
2018-02-22T08:12:54.637Z,17.17
2018-02-22T08:15:22.179Z,19.90
2018-02-22T08:17:49.646Z,17.80
2018-02-22T08:20:17.150Z,19.00
2018-02-22T08:22:45.410Z,18.17
2018-02-22T08:25:12.898Z,18.77
2018-02-22T08:27:40.378Z,17.63
2018-02-22T08:30:10.482Z,17.50
2018-02-22T08:32:38.217Z,19.77
2018-02-22T08:35:05.735Z,17.20
2018-02-22T08:37:33.224Z,17.60
2018-02-22T08:40:00.745Z,30.87
2018-02-22T08:42:28.236Z,18.40
2018-02-22T08:44:55.721Z,18.13
2018-02-22T08:47:23.977Z,18.67
2018-02-22T08:49:51.464Z,18.90
2018-02-22T08:52:19.705Z,18.87
2018-02-22T08:54:47.194Z,16.87
2018-02-22T08:57:15.452Z,18.40
2018-02-22T08:59:42.959Z,20.17
2018-02-22T09:02:10.442Z,18.00
2018-02-22T09:04:37.935Z,20.30
2018-02-22T09:07:06.205Z,18.63
2018-02-22T09:09:33.725Z,18.90
2018-02-22T09:12:01.264Z,18.30
2018-02-22T09:14:28.825Z,19.43
2018-02-22T09:16:56.348Z,19.70
2018-02-22T09:19:24.631Z,20.10
2018-02-22T09:21:52.910Z,18.77
2018-02-22T09:24:21.222Z,19.43
2018-02-22T09:26:48.800Z,17.33
2018-02-22T09:29:16.327Z,20.57
2018-02-22T09:31:43.862Z,18.70
2018-02-22T09:34:12.190Z,19.40
2018-02-22T09:36:39.716Z,17.60
2018-02-22T09:39:07.244Z,19.57
2018-02-22T09:41:34.763Z,20.63
2018-02-22T09:44:02.310Z,21.20
2018-02-22T09:46:29.876Z,19.93
2018-02-22T09:48:58.135Z,22.30
2018-02-22T09:51:25.660Z,21.20
2018-02-22T09:53:53.979Z,22.53
2018-02-22T09:56:21.521Z,20.47
2018-02-22T09:58:49.054Z,21.20
2018-02-22T10:01:17.370Z,22.37
2018-02-22T10:03:44.897Z,19.63
2018-02-22T10:06:13.267Z,20.30
2018-02-22T10:08:40.752Z,21.20
2018-02-22T10:11:08.306Z,20.27
2018-02-22T10:13:36.105Z,20.53
2018-02-22T10:16:03.637Z,18.50
2018-02-22T10:18:31.321Z,20.27
2018-02-22T10:20:58.886Z,21.27
2018-02-22T10:23:26.480Z,21.80
2018-02-22T10:25:54.190Z,21.10
2018-02-22T10:28:21.887Z,21.40
2018-02-22T10:30:49.516Z,19.87
2018-02-22T10:33:17.137Z,20.37
2018-02-22T10:35:44.677Z,19.33
2018-02-22T10:38:12.302Z,22.30
2018-02-22T10:40:40.581Z,20.43
2018-02-22T10:43:08.128Z,20.60
2018-02-22T10:45:35.779Z,22.00
2018-02-22T10:48:04.086Z,22.73
2018-02-22T10:50:31.610Z,19.27
2018-02-22T10:52:59.292Z,21.00
2018-02-22T10:55:26.863Z,22.70
2018-02-22T10:57:54.380Z,20.27
2018-02-22T11:00:28.397Z,20.83
2018-02-22T11:02:56.697Z,21.93
2018-02-22T11:05:24.237Z,21.20
2018-02-22T11:07:52.551Z,21.73
2018-02-22T11:10:20.072Z,21.20
2018-02-22T11:12:48.361Z,20.90
2018-02-22T11:15:15.943Z,21.80
2018-02-22T11:17:43.481Z,21.40
2018-02-22T11:20:11.067Z,20.43
2018-02-22T11:22:38.619Z,22.13
2018-02-22T11:25:06.190Z,23.30
2018-02-22T11:27:33.735Z,24.97
2018-02-22T11:30:01.271Z,22.67
2018-02-22T11:32:28.781Z,22.00
2018-02-22T11:34:56.476Z,21.07
2018-02-22T11:37:25.321Z,22.33
2018-02-22T11:39:52.816Z,21.10
2018-02-22T11:42:20.546Z,22.30
2018-02-22T11:44:48.141Z,23.87
2018-02-22T11:47:15.675Z,22.13
2018-02-22T11:49:43.186Z,20.33
2018-02-22T11:52:10.741Z,23.27
2018-02-22T11:54:39.029Z,24.07
2018-02-22T11:57:06.631Z,20.20
2018-02-22T11:59:34.218Z,24.47
2018-02-22T12:02:03.709Z,21.90
2018-02-22T12:04:31.265Z,21.47
2018-02-22T12:06:58.831Z,21.83
2018-02-22T12:09:26.385Z,22.80
2018-02-22T12:11:53.917Z,21.27
2018-02-22T12:14:21.493Z,22.60
2018-02-22T12:16:49.066Z,22.30
2018-02-22T12:19:16.588Z,21.50
2018-02-22T12:21:44.147Z,21.80
2018-02-22T12:24:11.759Z,20.63
2018-02-22T12:29:13.364Z,21.77
2018-02-22T12:31:40.908Z,21.50
2018-02-22T12:34:08.441Z,19.70
2018-02-22T12:36:37.601Z,21.00
2018-02-22T12:39:05.174Z,19.97
2018-02-22T12:41:32.708Z,20.10
2018-02-22T12:44:00.276Z,22.90
2018-02-22T12:46:27.793Z,38.53
2018-02-22T12:48:55.344Z,21.27
2018-02-22T12:51:22.899Z,20.70
2018-02-22T12:53:50.440Z,20.93
2018-02-22T12:56:18.015Z,22.37
2018-02-22T12:58:45.579Z,19.10
2018-02-22T13:01:13.107Z,21.67
2018-02-22T13:03:40.621Z,19.00
2018-02-22T13:06:08.276Z,18.40
2018-02-22T13:08:35.825Z,19.70
2018-02-22T13:11:03.395Z,19.20
2018-02-22T13:13:31.715Z,19.27
2018-02-22T13:15:59.253Z,19.77
2018-02-22T13:18:26.832Z,18.47
2018-02-22T13:20:54.364Z,17.97
2018-02-22T13:23:21.918Z,19.27
2018-02-22T13:25:49.464Z,18.90
2018-02-22T13:28:17.794Z,19.00
2018-02-22T13:30:45.328Z,18.63
2018-02-22T13:33:24.563Z,18.10
2018-02-22T13:35:52.069Z,16.73
2018-02-22T13:41:21.301Z,19.30
2018-02-22T13:43:48.762Z,18.13
2018-02-22T13:46:16.232Z,18.00
2018-02-22T13:48:56.444Z,18.10
2018-02-22T13:51:23.910Z,18.70
2018-02-22T13:53:51.374Z,18.30
2018-02-22T13:59:19.485Z,17.83
2018-02-22T14:01:58.966Z,17.20
2018-02-22T14:04:26.455Z,17.80
2018-02-22T14:06:53.976Z,17.63
2018-02-22T14:09:21.474Z,16.80
2018-02-22T14:11:48.979Z,20.33
2018-02-22T14:14:16.471Z,16.77
2018-02-22T14:16:43.977Z,18.07
2018-02-22T14:19:11.461Z,16.83
2018-02-22T14:21:39.261Z,16.50
2018-02-22T14:24:06.763Z,16.93
2018-02-22T14:26:34.985Z,17.40
2018-02-22T14:29:02.463Z,17.50
2018-02-22T14:31:29.924Z,17.17
2018-02-22T14:33:57.395Z,18.33
2018-02-22T14:36:24.859Z,14.90
2018-02-22T14:38:53.777Z,16.57
2018-02-22T14:41:21.340Z,15.90
2018-02-22T14:43:48.838Z,17.80
2018-02-22T14:46:16.320Z,17.43
2018-02-22T14:48:43.805Z,17.33
2018-02-22T14:51:12.067Z,16.63
2018-02-22T14:53:40.334Z,16.57
2018-02-22T14:56:07.797Z,15.37
2018-02-22T14:58:35.300Z,14.60
2018-02-22T15:01:09.522Z,17.37
2018-02-22T15:03:37.028Z,14.83
2018-02-22T15:06:05.281Z,17.00
2018-02-22T15:08:32.796Z,17.07
2018-02-22T15:11:00.277Z,16.97
2018-02-22T15:13:27.810Z,16.50
2018-02-22T15:15:55.432Z,16.20
2018-02-22T15:18:22.949Z,16.63
2018-02-22T15:20:50.570Z,16.30
2018-02-22T15:23:18.036Z,16.03
2018-02-22T15:25:46.289Z,16.10
2018-02-22T15:28:13.799Z,16.07
2018-02-22T15:33:15.114Z,16.10
2018-02-22T15:35:43.292Z,17.00
2018-02-22T15:38:10.812Z,16.57
2018-02-22T15:40:38.390Z,16.97
2018-02-22T15:43:05.878Z,15.80
2018-02-22T15:45:33.438Z,16.83
2018-02-22T15:48:01.735Z,18.07
2018-02-22T15:50:29.229Z,15.67
2018-02-22T15:52:56.760Z,17.37
2018-02-22T15:55:24.247Z,18.57
2018-02-22T15:57:51.748Z,18.67
2018-02-22T16:00:20.010Z,16.67
2018-02-22T16:02:47.501Z,18.73
2018-02-22T16:05:15.022Z,17.10
2018-02-22T16:07:42.540Z,17.00
2018-02-22T16:10:10.053Z,16.97
2018-02-22T16:12:37.546Z,18.40
2018-02-22T16:15:05.045Z,17.13
2018-02-22T16:17:32.524Z,17.33
2018-02-22T16:20:00.786Z,17.10
2018-02-22T16:22:28.272Z,15.63
2018-02-22T16:24:56.541Z,16.40
2018-02-22T16:27:24.778Z,17.87
2018-02-22T16:29:52.668Z,16.30
2018-02-22T16:32:20.152Z,17.10
2018-02-22T16:34:48.409Z,17.53
2018-02-22T16:37:15.876Z,16.70
2018-02-22T16:39:44.124Z,17.40
2018-02-22T16:42:11.583Z,16.57
2018-02-22T16:44:39.053Z,17.40
2018-02-22T16:47:06.562Z,15.63
2018-02-22T16:49:34.020Z,17.37
2018-02-22T16:52:01.484Z,15.77
2018-02-22T16:54:28.978Z,15.10
2018-02-22T16:56:56.439Z,16.70
2018-02-22T16:59:23.923Z,15.03
2018-02-22T17:01:52.149Z,16.13
2018-02-22T17:04:19.620Z,14.97
2018-02-22T17:06:47.092Z,15.93
2018-02-22T17:09:14.571Z,15.30
2018-02-22T17:11:42.876Z,14.93
2018-02-22T17:14:10.377Z,15.90
2018-02-22T17:16:37.895Z,15.80
2018-02-22T17:19:05.367Z,17.23
2018-02-22T17:21:32.835Z,14.60
2018-02-22T17:24:00.296Z,15.50
2018-02-22T17:26:33.676Z,16.70
2018-02-22T17:29:06.919Z,15.77
2018-02-22T17:31:40.005Z,14.87
2018-02-22T17:34:09.957Z,15.40
2018-02-22T17:36:41.271Z,16.47
2018-02-22T17:42:10.682Z,14.97
2018-02-22T17:44:38.238Z,16.00
2018-02-22T17:47:05.739Z,14.67
2018-02-22T17:49:33.298Z,14.30
2018-02-22T17:52:00.812Z,12.93
2018-02-22T17:54:28.323Z,15.37
2018-02-22T17:56:55.818Z,13.23
2018-02-22T17:59:23.307Z,13.63
2018-02-22T18:01:51.615Z,12.93
2018-02-22T18:04:19.092Z,14.37
2018-02-22T18:06:46.605Z,13.93
2018-02-22T18:09:15.048Z,14.33
2018-02-22T18:11:43.335Z,13.40
2018-02-22T18:14:10.949Z,12.50
2018-02-22T18:16:38.494Z,14.20
2018-02-22T18:19:06.019Z,14.03
2018-02-22T18:21:33.580Z,12.77
2018-02-22T18:24:01.104Z,14.13
2018-02-22T18:26:28.598Z,14.00
2018-02-22T18:28:56.126Z,13.60
2018-02-22T18:31:23.664Z,14.67
2018-02-22T18:33:51.181Z,13.17
2018-02-22T18:36:18.692Z,14.40
2018-02-22T18:38:51.867Z,12.90
2018-02-22T18:41:19.451Z,14.60
2018-02-22T18:43:46.973Z,14.43
2018-02-22T18:46:14.490Z,14.80
2018-02-22T18:48:42.013Z,15.07
2018-02-22T18:51:09.548Z,14.97
2018-02-22T18:53:37.822Z,13.90
2018-02-22T18:56:06.098Z,13.73
2018-02-22T18:58:34.365Z,14.10
2018-02-22T19:01:01.880Z,13.33
2018-02-22T19:03:29.421Z,15.20
2018-02-22T19:05:56.983Z,13.37
2018-02-22T19:08:24.479Z,13.67
2018-02-22T19:10:52.010Z,14.93
2018-02-22T19:13:19.438Z,13.87
2018-02-22T19:15:48.145Z,14.37
2018-02-22T19:18:15.618Z,14.57
2018-02-22T19:20:43.122Z,14.00
2018-02-22T19:23:11.875Z,15.93
2018-02-22T19:25:39.985Z,14.30
2018-02-22T19:28:07.471Z,15.33
2018-02-22T19:30:34.950Z,15.50
2018-02-22T19:33:02.416Z,14.70
2018-02-22T19:35:30.250Z,15.07
2018-02-22T19:37:57.738Z,15.00
2018-02-22T19:40:25.237Z,15.63
2018-02-22T19:42:53.641Z,14.73
2018-02-22T19:45:21.168Z,16.20
2018-02-22T19:47:49.649Z,15.83
2018-02-22T19:50:17.336Z,15.60
2018-02-22T19:52:45.723Z,15.73
2018-02-22T19:55:13.297Z,15.63
2018-02-22T19:57:40.807Z,15.80
2018-02-22T20:00:08.549Z,14.20
2018-02-22T20:02:36.919Z,16.80
2018-02-22T20:05:04.554Z,15.37
2018-02-22T20:07:32.083Z,13.00
2018-02-22T20:09:59.910Z,15.37
2018-02-22T20:12:27.507Z,15.30
2018-02-22T20:14:55.913Z,16.40
2018-02-22T20:17:23.628Z,13.77
2018-02-22T20:19:51.101Z,16.53
2018-02-22T20:22:18.613Z,16.00
2018-02-22T20:24:46.105Z,14.30
2018-02-22T20:27:13.567Z,15.73
2018-02-22T20:29:41.042Z,14.90
2018-02-22T20:32:08.512Z,16.00
2018-02-22T20:34:36.759Z,15.13
2018-02-22T20:37:04.231Z,14.70
2018-02-22T20:39:31.693Z,15.60
2018-02-22T20:41:59.970Z,15.83
2018-02-22T20:44:28.210Z,14.40
2018-02-22T20:46:55.677Z,15.93
2018-02-22T20:49:23.136Z,15.87
2018-02-22T20:51:53.061Z,16.40
2018-02-22T20:54:20.537Z,15.50
2018-02-22T20:56:48.787Z,16.90
2018-02-22T20:59:16.247Z,15.27
2018-02-22T21:01:43.763Z,16.60
2018-02-22T21:04:14.662Z,15.80
2018-02-22T21:06:42.140Z,18.10
2018-02-22T21:09:10.373Z,15.73
2018-02-22T21:11:37.839Z,15.20
2018-02-22T21:14:05.305Z,14.30
2018-02-22T21:16:32.784Z,17.13
2018-02-22T21:19:01.018Z,15.97
2018-02-22T21:21:28.517Z,14.43
2018-02-22T21:23:56.734Z,16.73
2018-02-22T21:26:24.208Z,16.97
2018-02-22T21:28:51.669Z,17.07
2018-02-22T21:31:19.140Z,16.17
2018-02-22T21:33:46.599Z,16.30
2018-02-22T21:36:14.071Z,16.60
2018-02-22T21:38:42.328Z,16.20
2018-02-22T21:41:09.783Z,17.37
2018-02-22T21:43:37.346Z,17.50
2018-02-22T21:46:04.800Z,18.00
2018-02-22T21:48:32.275Z,15.53
2018-02-22T21:51:00.541Z,17.00
2018-02-22T21:53:28.027Z,16.17
2018-02-22T21:55:56.271Z,16.63
2018-02-22T21:58:23.741Z,18.20
2018-02-22T22:00:51.205Z,17.47
2018-02-22T22:03:19.442Z,17.60
2018-02-22T22:05:46.908Z,18.27
2018-02-22T22:08:14.388Z,18.10
2018-02-22T22:10:42.640Z,17.80
2018-02-22T22:13:10.140Z,18.33
2018-02-22T22:15:38.359Z,17.90
2018-02-22T22:18:05.819Z,17.57
2018-02-22T22:20:33.287Z,16.77
2018-02-22T22:23:00.774Z,18.10
2018-02-22T22:25:29.000Z,16.60
2018-02-22T22:27:56.467Z,15.40
2018-02-22T22:30:23.928Z,17.93
2018-02-22T22:32:51.404Z,17.33
2018-02-22T22:35:18.865Z,17.17
2018-02-22T22:37:46.329Z,16.40
2018-02-22T22:40:13.785Z,17.40
2018-02-22T22:42:41.256Z,17.30
2018-02-22T22:45:09.481Z,17.27
2018-02-22T22:47:36.945Z,18.27
2018-02-22T22:50:04.409Z,17.90
2018-02-22T22:52:31.901Z,16.00
2018-02-22T22:54:59.397Z,16.53
2018-02-22T22:57:26.858Z,17.17
2018-02-22T22:59:54.321Z,16.60
2018-02-22T23:02:21.814Z,17.07
2018-02-22T23:04:49.286Z,15.50
2018-02-22T23:07:16.777Z,17.57
2018-02-22T23:09:44.233Z,16.53
2018-02-22T23:12:11.725Z,14.83
2018-02-22T23:14:39.177Z,14.73
2018-02-22T23:17:06.641Z,17.70
2018-02-22T23:19:34.104Z,16.13
2018-02-22T23:22:01.561Z,14.90
2018-02-22T23:24:29.078Z,15.23
2018-02-22T23:26:56.508Z,16.67
2018-02-22T23:29:24.743Z,16.90
2018-02-22T23:31:52.213Z,16.17
2018-02-22T23:34:19.684Z,16.23
2018-02-22T23:36:47.142Z,16.40
2018-02-22T23:39:14.610Z,16.80
2018-02-22T23:41:46.714Z,16.47
2018-02-22T23:44:14.181Z,16.17
2018-02-22T23:46:41.637Z,15.70
2018-02-22T23:49:09.103Z,16.80
2018-02-22T23:51:36.566Z,17.03
2018-02-22T23:54:04.037Z,16.87
2018-02-22T23:56:31.503Z,16.47
2018-02-22T23:58:58.972Z,16.80
